sensor_id;sensor_type;location;lat;lon;timestamp;temperature;humidity
3202;DHT22;34843;48.744;8.958;2024-01-15T00:02:11;-1.90;99.90
3202;DHT22;34843;48.744;8.958;2024-01-15T00:04:38;-1.90;99.90
3202;DHT22;34843;48.744;8.958;2024-01-15T00:07:04;-1.90;99.90
3202;DHT22;34843;48.744;8.958;2024-01-15T00:09:29;-1.90;99.90
3202;DHT22;34843;48.744;8.958;2024-01-15T00:11:55;-1.80;99.90
3202;DHT22;34843;48.744;8.958;2024-01-15T00:14:20;-1.80;99.90
3202;DHT22;34843;48.744;8.958;2024-01-15T00:16:46;-1.90;99.90
3202;DHT22;34843;48.744;8.958;2024-01-15T00:19:12;-1.80;99.90
3202;DHT22;34843;48.744;8.958;2024-01-15T00:21:37;-1.80;99.90
3202;DHT22;34843;48.744;8.958;2024-01-15T00:24:03;-1.80;99.90
3202;DHT22;34843;48.744;8.958;2024-01-15T00:26:29;-2.00;99.90
3202;DHT22;34843;48.744;8.958;2024-01-15T00:28:54;-2.00;99.90
3202;DHT22;34843;48.744;8.958;2024-01-15T00:31:20;-2.10;99.90
3202;DHT22;34843;48.744;8.958;2024-01-15T00:33:45;-2.20;99.90
3202;DHT22;34843;48.744;8.958;2024-01-15T00:36:11;-2.20;99.90
3202;DHT22;34843;48.744;8.958;2024-01-15T00:38:36;-2.30;99.90
3202;DHT22;34843;48.744;8.958;2024-01-15T00:41:02;-2.40;99.90
3202;DHT22;34843;48.744;8.958;2024-01-15T00:43:28;-2.40;99.90
3202;DHT22;34843;48.744;8.958;2024-01-15T00:45:53;-2.40;99.90
3202;DHT22;34843;48.744;8.958;2024-01-15T00:48:19;-2.40;99.90
3202;DHT22;34843;48.744;8.958;2024-01-15T00:50:44;-2.50;99.90
3202;DHT22;34843;48.744;8.958;2024-01-15T00:53:10;-2.50;99.90
3202;DHT22;34843;48.744;8.958;2024-01-15T00:55:36;-2.50;99.90
3202;DHT22;34843;48.744;8.958;2024-01-15T00:58:03;-2.50;99.90
3202;DHT22;34843;48.744;8.958;2024-01-15T01:00:28;-2.50;99.90
3202;DHT22;34843;48.744;8.958;2024-01-15T01:02:54;-2.40;99.90
3202;DHT22;34843;48.744;8.958;2024-01-15T01:05:19;-2.30;99.90
3202;DHT22;34843;48.744;8.958;2024-01-15T01:07:45;-2.30;99.90
3202;DHT22;34843;48.744;8.958;2024-01-15T01:10:10;-2.20;99.90
3202;DHT22;34843;48.744;8.958;2024-01-15T01:12:36;-2.10;99.90
3202;DHT22;34843;48.744;8.958;2024-01-15T01:15:01;-2.00;99.90
3202;DHT22;34843;48.744;8.958;2024-01-15T01:17:27;-2.10;99.90
3202;DHT22;34843;48.744;8.958;2024-01-15T01:19:53;-2.10;99.90
3202;DHT22;34843;48.744;8.958;2024-01-15T01:22:18;-2.20;99.90
3202;DHT22;34843;48.744;8.958;2024-01-15T01:24:44;-2.10;99.90
3202;DHT22;34843;48.744;8.958;2024-01-15T01:27:09;-2.10;99.90
3202;DHT22;34843;48.744;8.958;2024-01-15T01:29:35;-2.10;99.90
3202;DHT22;34843;48.744;8.958;2024-01-15T01:32:00;-2.10;99.90
3202;DHT22;34843;48.744;8.958;2024-01-15T01:34:26;-2.00;99.90
3202;DHT22;34843;48.744;8.958;2024-01-15T01:36:51;-2.00;99.90
3202;DHT22;34843;48.744;8.958;2024-01-15T01:39:17;-1.90;99.90
3202;DHT22;34843;48.744;8.958;2024-01-15T01:41:42;-2.00;99.90
3202;DHT22;34843;48.744;8.958;2024-01-15T01:44:08;-2.10;99.90
3202;DHT22;34843;48.744;8.958;2024-01-15T01:46:34;-2.20;99.90
3202;DHT22;34843;48.744;8.958;2024-01-15T01:49:00;-2.20;99.90
3202;DHT22;34843;48.744;8.958;2024-01-15T01:51:31;-2.30;99.90
3202;DHT22;34843;48.744;8.958;2024-01-15T01:53:57;-2.30;99.90
3202;DHT22;34843;48.744;8.958;2024-01-15T01:56:22;-2.30;99.90
3202;DHT22;34843;48.744;8.958;2024-01-15T01:58:48;-2.40;99.90
3202;DHT22;34843;48.744;8.958;2024-01-15T02:01:15;-2.40;99.90
3202;DHT22;34843;48.744;8.958;2024-01-15T02:03:41;-2.50;99.90
3202;DHT22;34843;48.744;8.958;2024-01-15T02:06:06;-2.50;99.90
3202;DHT22;34843;48.744;8.958;2024-01-15T02:08:32;-2.50;99.90
3202;DHT22;34843;48.744;8.958;2024-01-15T02:10:58;-2.50;99.90
3202;DHT22;34843;48.744;8.958;2024-01-15T02:13:23;-2.60;99.90
3202;DHT22;34843;48.744;8.958;2024-01-15T02:15:49;-2.60;99.90
3202;DHT22;34843;48.744;8.958;2024-01-15T02:18:15;-2.60;99.90
3202;DHT22;34843;48.744;8.958;2024-01-15T02:20:40;-2.60;99.90
3202;DHT22;34843;48.744;8.958;2024-01-15T02:23:12;-2.60;99.90
3202;DHT22;34843;48.744;8.958;2024-01-15T02:25:46;-2.50;99.90
3202;DHT22;34843;48.744;8.958;2024-01-15T02:28:13;-2.50;99.90
3202;DHT22;34843;48.744;8.958;2024-01-15T02:30:40;-2.60;99.90
3202;DHT22;34843;48.744;8.958;2024-01-15T02:33:06;-2.50;99.90
3202;DHT22;34843;48.744;8.958;2024-01-15T02:35:32;-2.50;99.90
3202;DHT22;34843;48.744;8.958;2024-01-15T02:37:58;-2.50;99.90
3202;DHT22;34843;48.744;8.958;2024-01-15T02:40:24;-2.50;99.90
3202;DHT22;34843;48.744;8.958;2024-01-15T02:42:49;-2.50;99.90
3202;DHT22;34843;48.744;8.958;2024-01-15T02:45:15;-2.50;99.90
3202;DHT22;34843;48.744;8.958;2024-01-15T02:47:40;-2.40;99.90
3202;DHT22;34843;48.744;8.958;2024-01-15T02:50:06;-2.40;99.90
3202;DHT22;34843;48.744;8.958;2024-01-15T02:52:31;-2.30;99.90
3202;DHT22;34843;48.744;8.958;2024-01-15T02:54:57;-2.30;99.90
3202;DHT22;34843;48.744;8.958;2024-01-15T02:57:23;-2.30;99.90
3202;DHT22;34843;48.744;8.958;2024-01-15T02:59:48;-2.20;99.90
3202;DHT22;34843;48.744;8.958;2024-01-15T03:02:14;-2.20;99.90
3202;DHT22;34843;48.744;8.958;2024-01-15T03:04:43;-2.20;99.90
3202;DHT22;34843;48.744;8.958;2024-01-15T03:07:09;-2.20;99.90
3202;DHT22;34843;48.744;8.958;2024-01-15T03:09:34;-2.10;99.90
3202;DHT22;34843;48.744;8.958;2024-01-15T03:12:00;-2.10;99.90
3202;DHT22;34843;48.744;8.958;2024-01-15T03:14:25;-2.00;99.90
3202;DHT22;34843;48.744;8.958;2024-01-15T03:16:52;-2.00;99.90
3202;DHT22;34843;48.744;8.958;2024-01-15T03:19:17;-1.90;99.90
3202;DHT22;34843;48.744;8.958;2024-01-15T03:21:43;-1.90;99.90
3202;DHT22;34843;48.744;8.958;2024-01-15T03:24:08;-1.80;99.90
3202;DHT22;34843;48.744;8.958;2024-01-15T03:26:34;-1.80;99.90
3202;DHT22;34843;48.744;8.958;2024-01-15T03:28:59;-1.70;99.90
3202;DHT22;34843;48.744;8.958;2024-01-15T03:31:24;-1.70;99.90
3202;DHT22;34843;48.744;8.958;2024-01-15T03:33:50;-1.70;99.90
3202;DHT22;34843;48.744;8.958;2024-01-15T03:36:15;-1.70;99.90
3202;DHT22;34843;48.744;8.958;2024-01-15T03:38:41;-1.60;99.90
3202;DHT22;34843;48.744;8.958;2024-01-15T03:41:07;-1.60;99.90
3202;DHT22;34843;48.744;8.958;2024-01-15T03:43:33;-1.60;99.90
3202;DHT22;34843;48.744;8.958;2024-01-15T03:45:58;-1.60;99.90
3202;DHT22;34843;48.744;8.958;2024-01-15T03:48:24;-1.50;99.90
3202;DHT22;34843;48.744;8.958;2024-01-15T03:50:49;-1.50;99.90
3202;DHT22;34843;48.744;8.958;2024-01-15T03:53:15;-1.50;99.90
3202;DHT22;34843;48.744;8.958;2024-01-15T03:55:41;-1.40;99.90
3202;DHT22;34843;48.744;8.958;2024-01-15T03:58:07;-1.40;99.90
3202;DHT22;34843;48.744;8.958;2024-01-15T04:00:32;-1.40;99.90
3202;DHT22;34843;48.744;8.958;2024-01-15T04:02:58;-1.30;99.90
3202;DHT22;34843;48.744;8.958;2024-01-15T04:05:23;-1.30;99.90
3202;DHT22;34843;48.744;8.958;2024-01-15T04:07:49;-1.30;99.90
3202;DHT22;34843;48.744;8.958;2024-01-15T04:10:14;-1.20;99.90
3202;DHT22;34843;48.744;8.958;2024-01-15T04:12:40;-1.20;99.90
3202;DHT22;34843;48.744;8.958;2024-01-15T04:15:06;-1.10;99.90
3202;DHT22;34843;48.744;8.958;2024-01-15T04:17:31;-1.10;99.90
3202;DHT22;34843;48.744;8.958;2024-01-15T04:19:57;-1.00;99.90
3202;DHT22;34843;48.744;8.958;2024-01-15T04:22:23;-1.00;99.90
3202;DHT22;34843;48.744;8.958;2024-01-15T04:24:48;-1.00;99.90
3202;DHT22;34843;48.744;8.958;2024-01-15T04:27:14;-1.00;99.90
3202;DHT22;34843;48.744;8.958;2024-01-15T04:29:39;-1.00;99.90
3202;DHT22;34843;48.744;8.958;2024-01-15T04:32:05;-1.00;99.90
3202;DHT22;34843;48.744;8.958;2024-01-15T04:34:31;-1.00;99.90
3202;DHT22;34843;48.744;8.958;2024-01-15T04:36:57;-1.00;99.90
3202;DHT22;34843;48.744;8.958;2024-01-15T04:39:22;-0.90;99.90
3202;DHT22;34843;48.744;8.958;2024-01-15T04:41:48;-0.90;99.90
3202;DHT22;34843;48.744;8.958;2024-01-15T04:44:13;-0.90;99.90
3202;DHT22;34843;48.744;8.958;2024-01-15T04:46:39;-0.90;99.90
3202;DHT22;34843;48.744;8.958;2024-01-15T04:49:05;-0.90;99.90
3202;DHT22;34843;48.744;8.958;2024-01-15T04:51:30;-0.90;99.90
3202;DHT22;34843;48.744;8.958;2024-01-15T04:53:56;-0.80;99.90
3202;DHT22;34843;48.744;8.958;2024-01-15T04:56:21;-0.80;99.90
3202;DHT22;34843;48.744;8.958;2024-01-15T04:58:47;-0.80;99.90
3202;DHT22;34843;48.744;8.958;2024-01-15T05:01:12;-0.80;99.90
3202;DHT22;34843;48.744;8.958;2024-01-15T05:03:38;-0.80;99.90
3202;DHT22;34843;48.744;8.958;2024-01-15T05:06:04;-0.70;99.90
3202;DHT22;34843;48.744;8.958;2024-01-15T05:08:30;-0.80;99.90
3202;DHT22;34843;48.744;8.958;2024-01-15T05:10:55;-0.80;99.90
3202;DHT22;34843;48.744;8.958;2024-01-15T05:13:21;-0.80;99.90
3202;DHT22;34843;48.744;8.958;2024-01-15T05:15:46;-0.80;99.90
3202;DHT22;34843;48.744;8.958;2024-01-15T05:18:13;-0.80;99.90
3202;DHT22;34843;48.744;8.958;2024-01-15T05:20:38;-0.80;99.90
3202;DHT22;34843;48.744;8.958;2024-01-15T05:23:03;-0.70;99.90
3202;DHT22;34843;48.744;8.958;2024-01-15T05:25:29;-0.80;99.90
3202;DHT22;34843;48.744;8.958;2024-01-15T05:27:54;-0.80;99.90
3202;DHT22;34843;48.744;8.958;2024-01-15T05:30:20;-1.00;99.90
3202;DHT22;34843;48.744;8.958;2024-01-15T05:32:45;-0.90;99.90
3202;DHT22;34843;48.744;8.958;2024-01-15T05:35:11;-0.80;99.90
3202;DHT22;34843;48.744;8.958;2024-01-15T05:37:38;-0.90;99.90
3202;DHT22;34843;48.744;8.958;2024-01-15T05:40:04;-0.90;99.90
3202;DHT22;34843;48.744;8.958;2024-01-15T05:42:30;-0.90;99.90
3202;DHT22;34843;48.744;8.958;2024-01-15T05:44:57;-0.90;99.90
3202;DHT22;34843;48.744;8.958;2024-01-15T05:47:24;-0.90;99.90
3202;DHT22;34843;48.744;8.958;2024-01-15T05:49:50;-0.90;99.90
3202;DHT22;34843;48.744;8.958;2024-01-15T05:52:15;-0.90;99.90
3202;DHT22;34843;48.744;8.958;2024-01-15T05:54:41;-0.90;99.90
3202;DHT22;34843;48.744;8.958;2024-01-15T05:57:07;-0.90;99.90
3202;DHT22;34843;48.744;8.958;2024-01-15T05:59:32;-0.90;99.90
3202;DHT22;34843;48.744;8.958;2024-01-15T06:01:59;-0.90;99.90
3202;DHT22;34843;48.744;8.958;2024-01-15T06:04:25;-0.90;99.90
3202;DHT22;34843;48.744;8.958;2024-01-15T06:06:50;-0.90;99.90
3202;DHT22;34843;48.744;8.958;2024-01-15T06:09:15;-0.90;99.90
3202;DHT22;34843;48.744;8.958;2024-01-15T06:11:41;-1.00;99.90
3202;DHT22;34843;48.744;8.958;2024-01-15T06:14:06;-1.00;99.90
3202;DHT22;34843;48.744;8.958;2024-01-15T06:16:32;-1.00;99.90
3202;DHT22;34843;48.744;8.958;2024-01-15T06:18:58;-0.90;99.90
3202;DHT22;34843;48.744;8.958;2024-01-15T06:21:23;-0.90;99.90
3202;DHT22;34843;48.744;8.958;2024-01-15T06:23:49;-0.90;99.90
3202;DHT22;34843;48.744;8.958;2024-01-15T06:26:14;-0.90;99.90
3202;DHT22;34843;48.744;8.958;2024-01-15T06:28:40;-0.90;99.90
3202;DHT22;34843;48.744;8.958;2024-01-15T06:31:06;-0.90;99.90
3202;DHT22;34843;48.744;8.958;2024-01-15T06:33:32;-1.00;99.90
3202;DHT22;34843;48.744;8.958;2024-01-15T06:35:58;-1.00;99.90
3202;DHT22;34843;48.744;8.958;2024-01-15T06:38:23;-1.00;99.90
3202;DHT22;34843;48.744;8.958;2024-01-15T06:40:50;-1.00;99.90
3202;DHT22;34843;48.744;8.958;2024-01-15T06:43:17;-1.00;99.90
3202;DHT22;34843;48.744;8.958;2024-01-15T06:45:45;-1.00;99.90
3202;DHT22;34843;48.744;8.958;2024-01-15T06:48:11;-1.00;99.90
3202;DHT22;34843;48.744;8.958;2024-01-15T06:50:40;-1.00;99.90
3202;DHT22;34843;48.744;8.958;2024-01-15T06:53:05;-1.00;99.90
3202;DHT22;34843;48.744;8.958;2024-01-15T06:55:31;-1.00;99.90
3202;DHT22;34843;48.744;8.958;2024-01-15T06:57:56;-1.00;99.90
3202;DHT22;34843;48.744;8.958;2024-01-15T07:00:22;-1.00;99.90
3202;DHT22;34843;48.744;8.958;2024-01-15T07:02:48;-1.00;99.90
3202;DHT22;34843;48.744;8.958;2024-01-15T07:05:13;-1.00;99.90
3202;DHT22;34843;48.744;8.958;2024-01-15T07:07:39;-1.00;99.90
3202;DHT22;34843;48.744;8.958;2024-01-15T07:10:05;-1.10;99.90
3202;DHT22;34843;48.744;8.958;2024-01-15T07:12:31;-1.10;99.90
3202;DHT22;34843;48.744;8.958;2024-01-15T07:14:56;-1.10;99.90
3202;DHT22;34843;48.744;8.958;2024-01-15T07:17:22;-1.10;99.90
3202;DHT22;34843;48.744;8.958;2024-01-15T07:19:48;-1.00;99.90
3202;DHT22;34843;48.744;8.958;2024-01-15T07:22:14;-1.00;99.90
3202;DHT22;34843;48.744;8.958;2024-01-15T07:24:42;-1.00;99.90
3202;DHT22;34843;48.744;8.958;2024-01-15T07:27:08;-0.90;99.90
3202;DHT22;34843;48.744;8.958;2024-01-15T07:29:34;-0.90;99.90
3202;DHT22;34843;48.744;8.958;2024-01-15T07:32:01;-0.90;99.90
3202;DHT22;34843;48.744;8.958;2024-01-15T07:34:27;-0.80;99.90
3202;DHT22;34843;48.744;8.958;2024-01-15T07:36:52;-0.80;99.90
3202;DHT22;34843;48.744;8.958;2024-01-15T07:39:18;-0.80;99.90
3202;DHT22;34843;48.744;8.958;2024-01-15T07:41:43;-0.80;99.90
3202;DHT22;34843;48.744;8.958;2024-01-15T07:44:09;-0.70;99.90
3202;DHT22;34843;48.744;8.958;2024-01-15T07:46:34;-0.70;99.90
3202;DHT22;34843;48.744;8.958;2024-01-15T07:49:00;-0.60;99.90
3202;DHT22;34843;48.744;8.958;2024-01-15T07:51:25;-0.60;99.90
3202;DHT22;34843;48.744;8.958;2024-01-15T07:53:53;-0.60;99.90
3202;DHT22;34843;48.744;8.958;2024-01-15T07:56:19;-0.50;99.90
3202;DHT22;34843;48.744;8.958;2024-01-15T07:58:45;-0.50;99.90
3202;DHT22;34843;48.744;8.958;2024-01-15T08:01:10;-0.50;99.90
3202;DHT22;34843;48.744;8.958;2024-01-15T08:03:36;-0.40;99.90
3202;DHT22;34843;48.744;8.958;2024-01-15T08:06:02;-0.40;99.90
3202;DHT22;34843;48.744;8.958;2024-01-15T08:08:27;-0.40;99.90
3202;DHT22;34843;48.744;8.958;2024-01-15T08:10:53;-0.40;99.90
3202;DHT22;34843;48.744;8.958;2024-01-15T08:13:18;-0.30;99.90
3202;DHT22;34843;48.744;8.958;2024-01-15T08:15:45;-0.20;99.90
3202;DHT22;34843;48.744;8.958;2024-01-15T08:18:11;-0.10;99.90
3202;DHT22;34843;48.744;8.958;2024-01-15T08:20:36;0.50;99.90
3202;DHT22;34843;48.744;8.958;2024-01-15T08:23:02;-0.20;99.90
3202;DHT22;34843;48.744;8.958;2024-01-15T08:25:28;-0.20;99.90
3202;DHT22;34843;48.744;8.958;2024-01-15T08:27:53;-0.10;99.90
3202;DHT22;34843;48.744;8.958;2024-01-15T08:30:19;-0.10;99.90
3202;DHT22;34843;48.744;8.958;2024-01-15T08:32:45;0.00;99.90
3202;DHT22;34843;48.744;8.958;2024-01-15T08:35:11;0.00;99.90
3202;DHT22;34843;48.744;8.958;2024-01-15T08:37:38;0.00;99.90
3202;DHT22;34843;48.744;8.958;2024-01-15T08:40:03;0.10;99.90
3202;DHT22;34843;48.744;8.958;2024-01-15T08:42:29;0.10;99.90
3202;DHT22;34843;48.744;8.958;2024-01-15T08:44:55;0.20;99.90
3202;DHT22;34843;48.744;8.958;2024-01-15T08:47:20;0.20;99.90
3202;DHT22;34843;48.744;8.958;2024-01-15T08:49:46;0.30;99.90
3202;DHT22;34843;48.744;8.958;2024-01-15T08:52:12;0.30;99.90
3202;DHT22;34843;48.744;8.958;2024-01-15T08:54:37;0.40;99.90
3202;DHT22;34843;48.744;8.958;2024-01-15T08:57:03;0.40;99.90
3202;DHT22;34843;48.744;8.958;2024-01-15T08:59:28;0.50;99.90
3202;DHT22;34843;48.744;8.958;2024-01-15T09:01:54;0.50;99.90
3202;DHT22;34843;48.744;8.958;2024-01-15T09:04:22;0.50;99.90
3202;DHT22;34843;48.744;8.958;2024-01-15T09:06:48;0.60;99.90
3202;DHT22;34843;48.744;8.958;2024-01-15T09:09:14;0.70;99.90
3202;DHT22;34843;48.744;8.958;2024-01-15T09:11:40;0.80;99.90
3202;DHT22;34843;48.744;8.958;2024-01-15T09:14:06;0.80;99.90
3202;DHT22;34843;48.744;8.958;2024-01-15T09:16:32;0.80;99.90
3202;DHT22;34843;48.744;8.958;2024-01-15T09:18:57;0.90;99.90
3202;DHT22;34843;48.744;8.958;2024-01-15T09:21:23;0.90;99.90
3202;DHT22;34843;48.744;8.958;2024-01-15T09:23:50;0.90;99.90
3202;DHT22;34843;48.744;8.958;2024-01-15T09:26:15;1.00;99.90
3202;DHT22;34843;48.744;8.958;2024-01-15T09:28:41;1.00;99.90
3202;DHT22;34843;48.744;8.958;2024-01-15T09:31:07;1.10;99.90
3202;DHT22;34843;48.744;8.958;2024-01-15T09:33:32;1.00;99.90
3202;DHT22;34843;48.744;8.958;2024-01-15T09:36:01;1.10;99.90
3202;DHT22;34843;48.744;8.958;2024-01-15T09:38:29;1.10;99.90
3202;DHT22;34843;48.744;8.958;2024-01-15T09:40:55;1.20;99.90
3202;DHT22;34843;48.744;8.958;2024-01-15T09:43:21;1.30;99.90
3202;DHT22;34843;48.744;8.958;2024-01-15T09:45:47;1.40;99.90
3202;DHT22;34843;48.744;8.958;2024-01-15T09:48:14;1.30;99.90
3202;DHT22;34843;48.744;8.958;2024-01-15T09:50:39;1.30;99.90
3202;DHT22;34843;48.744;8.958;2024-01-15T09:53:05;1.30;99.90
3202;DHT22;34843;48.744;8.958;2024-01-15T09:55:31;1.40;99.90
3202;DHT22;34843;48.744;8.958;2024-01-15T09:57:59;1.30;99.90
3202;DHT22;34843;48.744;8.958;2024-01-15T10:00:26;1.30;99.90
3202;DHT22;34843;48.744;8.958;2024-01-15T10:02:52;1.30;99.90
3202;DHT22;34843;48.744;8.958;2024-01-15T10:05:17;1.20;99.90
3202;DHT22;34843;48.744;8.958;2024-01-15T10:07:43;1.20;99.90
3202;DHT22;34843;48.744;8.958;2024-01-15T10:10:11;1.30;99.90
3202;DHT22;34843;48.744;8.958;2024-01-15T10:12:37;1.40;99.90
3202;DHT22;34843;48.744;8.958;2024-01-15T10:15:04;1.50;99.90
3202;DHT22;34843;48.744;8.958;2024-01-15T10:17:30;1.60;99.90
3202;DHT22;34843;48.744;8.958;2024-01-15T10:19:56;1.60;99.90
3202;DHT22;34843;48.744;8.958;2024-01-15T10:22:22;1.50;99.90
3202;DHT22;34843;48.744;8.958;2024-01-15T10:24:48;1.50;99.90
3202;DHT22;34843;48.744;8.958;2024-01-15T10:27:14;1.50;99.90
3202;DHT22;34843;48.744;8.958;2024-01-15T10:29:41;1.50;99.90
3202;DHT22;34843;48.744;8.958;2024-01-15T10:32:07;1.50;99.90
3202;DHT22;34843;48.744;8.958;2024-01-15T10:34:40;1.50;99.90
3202;DHT22;34843;48.744;8.958;2024-01-15T10:37:09;1.30;99.90
3202;DHT22;34843;48.744;8.958;2024-01-15T10:39:35;1.30;99.90
3202;DHT22;34843;48.744;8.958;2024-01-15T10:42:00;1.20;99.90
3202;DHT22;34843;48.744;8.958;2024-01-15T10:44:26;1.20;99.90
3202;DHT22;34843;48.744;8.958;2024-01-15T10:46:51;1.20;99.90
3202;DHT22;34843;48.744;8.958;2024-01-15T10:49:18;1.20;99.90
3202;DHT22;34843;48.744;8.958;2024-01-15T10:51:45;1.30;99.90
3202;DHT22;34843;48.744;8.958;2024-01-15T10:54:11;1.40;99.90
3202;DHT22;34843;48.744;8.958;2024-01-15T10:56:39;1.50;99.90
3202;DHT22;34843;48.744;8.958;2024-01-15T10:59:05;1.50;99.90
3202;DHT22;34843;48.744;8.958;2024-01-15T11:01:33;1.60;99.90
3202;DHT22;34843;48.744;8.958;2024-01-15T11:04:00;1.50;99.90
3202;DHT22;34843;48.744;8.958;2024-01-15T11:06:28;1.60;99.90
3202;DHT22;34843;48.744;8.958;2024-01-15T11:08:54;1.60;99.90
3202;DHT22;34843;48.744;8.958;2024-01-15T11:11:21;1.60;99.90
3202;DHT22;34843;48.744;8.958;2024-01-15T11:13:47;1.60;99.90
3202;DHT22;34843;48.744;8.958;2024-01-15T11:16:16;1.60;99.90
3202;DHT22;34843;48.744;8.958;2024-01-15T11:19:02;1.60;99.90
3202;DHT22;34843;48.744;8.958;2024-01-15T11:21:28;1.50;99.90
3202;DHT22;34843;48.744;8.958;2024-01-15T11:24:02;1.50;99.90
3202;DHT22;34843;48.744;8.958;2024-01-15T11:26:33;1.40;99.90
3202;DHT22;34843;48.744;8.958;2024-01-15T11:29:29;1.30;99.90
3202;DHT22;34843;48.744;8.958;2024-01-15T11:34:20;1.40;99.90
3202;DHT22;34843;48.744;8.958;2024-01-15T11:41:59;1.10;99.90
3202;DHT22;34843;48.744;8.958;2024-01-15T11:44:26;1.00;99.90
3202;DHT22;34843;48.744;8.958;2024-01-15T11:46:59;1.00;99.90
3202;DHT22;34843;48.744;8.958;2024-01-15T11:52:16;1.10;99.90
3202;DHT22;34843;48.744;8.958;2024-01-15T11:55:07;1.00;99.90
3202;DHT22;34843;48.744;8.958;2024-01-15T11:57:47;1.00;99.90
3202;DHT22;34843;48.744;8.958;2024-01-15T12:00:15;1.00;99.90
3202;DHT22;34843;48.744;8.958;2024-01-15T12:02:45;1.00;99.90
3202;DHT22;34843;48.744;8.958;2024-01-15T12:05:12;1.00;99.90
3202;DHT22;34843;48.744;8.958;2024-01-15T12:07:41;1.00;99.90
3202;DHT22;34843;48.744;8.958;2024-01-15T12:10:14;1.00;99.90
3202;DHT22;34843;48.744;8.958;2024-01-15T12:12:53;0.80;99.90
3202;DHT22;34843;48.744;8.958;2024-01-15T12:15:20;0.80;99.90
3202;DHT22;34843;48.744;8.958;2024-01-15T12:17:45;0.60;99.90
3202;DHT22;34843;48.744;8.958;2024-01-15T12:20:11;0.60;99.90
3202;DHT22;34843;48.744;8.958;2024-01-15T12:22:37;0.60;99.90
3202;DHT22;34843;48.744;8.958;2024-01-15T12:25:03;0.60;99.90
3202;DHT22;34843;48.744;8.958;2024-01-15T12:27:29;0.50;99.90
3202;DHT22;34843;48.744;8.958;2024-01-15T12:29:55;0.50;99.90
3202;DHT22;34843;48.744;8.958;2024-01-15T12:32:20;0.50;99.90
3202;DHT22;34843;48.744;8.958;2024-01-15T12:34:49;0.50;99.90
3202;DHT22;34843;48.744;8.958;2024-01-15T12:37:14;0.50;99.90
3202;DHT22;34843;48.744;8.958;2024-01-15T12:39:43;0.50;99.90
3202;DHT22;34843;48.744;8.958;2024-01-15T12:42:09;0.50;99.90
3202;DHT22;34843;48.744;8.958;2024-01-15T12:44:35;0.50;99.90
3202;DHT22;34843;48.744;8.958;2024-01-15T12:47:04;0.50;99.90
3202;DHT22;34843;48.744;8.958;2024-01-15T12:49:29;0.60;99.90
3202;DHT22;34843;48.744;8.958;2024-01-15T12:51:57;0.70;99.90
3202;DHT22;34843;48.744;8.958;2024-01-15T12:54:23;0.70;99.90
3202;DHT22;34843;48.744;8.958;2024-01-15T12:56:49;0.70;99.90
3202;DHT22;34843;48.744;8.958;2024-01-15T12:59:15;0.70;99.90
3202;DHT22;34843;48.744;8.958;2024-01-15T13:01:40;0.80;99.90
3202;DHT22;34843;48.744;8.958;2024-01-15T13:04:07;0.80;99.90
3202;DHT22;34843;48.744;8.958;2024-01-15T13:06:34;0.90;99.90
3202;DHT22;34843;48.744;8.958;2024-01-15T13:09:00;0.90;99.90
3202;DHT22;34843;48.744;8.958;2024-01-15T13:11:26;0.80;99.90
3202;DHT22;34843;48.744;8.958;2024-01-15T13:13:51;0.80;99.90
3202;DHT22;34843;48.744;8.958;2024-01-15T13:16:17;0.80;99.90
3202;DHT22;34843;48.744;8.958;2024-01-15T13:18:42;0.80;99.90
3202;DHT22;34843;48.744;8.958;2024-01-15T13:21:08;0.80;99.90
3202;DHT22;34843;48.744;8.958;2024-01-15T13:23:33;0.80;99.90
3202;DHT22;34843;48.744;8.958;2024-01-15T13:25:59;0.80;99.90
3202;DHT22;34843;48.744;8.958;2024-01-15T13:28:24;0.80;99.90
3202;DHT22;34843;48.744;8.958;2024-01-15T13:30:50;0.80;99.90
3202;DHT22;34843;48.744;8.958;2024-01-15T13:33:15;0.80;99.90
3202;DHT22;34843;48.744;8.958;2024-01-15T13:35:41;0.80;99.90
3202;DHT22;34843;48.744;8.958;2024-01-15T13:38:06;0.80;99.90
3202;DHT22;34843;48.744;8.958;2024-01-15T13:40:34;0.90;99.90
3202;DHT22;34843;48.744;8.958;2024-01-15T13:42:59;0.90;99.90
3202;DHT22;34843;48.744;8.958;2024-01-15T13:45:25;0.60;99.90
3202;DHT22;34843;48.744;8.958;2024-01-15T13:47:50;1.00;99.90
3202;DHT22;34843;48.744;8.958;2024-01-15T13:50:16;1.00;99.90
3202;DHT22;34843;48.744;8.958;2024-01-15T13:52:42;1.00;99.90
3202;DHT22;34843;48.744;8.958;2024-01-15T13:55:07;0.90;99.90
3202;DHT22;34843;48.744;8.958;2024-01-15T13:57:34;1.00;99.90
3202;DHT22;34843;48.744;8.958;2024-01-15T13:59:59;0.90;99.90
3202;DHT22;34843;48.744;8.958;2024-01-15T14:02:25;0.80;99.90
3202;DHT22;34843;48.744;8.958;2024-01-15T14:04:51;0.70;99.90
3202;DHT22;34843;48.744;8.958;2024-01-15T14:07:16;0.60;99.90
3202;DHT22;34843;48.744;8.958;2024-01-15T14:09:42;0.60;99.90
3202;DHT22;34843;48.744;8.958;2024-01-15T14:12:07;0.60;99.90
3202;DHT22;34843;48.744;8.958;2024-01-15T14:14:33;0.60;99.90
3202;DHT22;34843;48.744;8.958;2024-01-15T14:16:58;0.50;99.90
3202;DHT22;34843;48.744;8.958;2024-01-15T14:21:57;0.40;99.90
3202;DHT22;34843;48.744;8.958;2024-01-15T14:24:22;0.30;99.90
3202;DHT22;34843;48.744;8.958;2024-01-15T14:26:48;0.30;99.90
3202;DHT22;34843;48.744;8.958;2024-01-15T14:29:13;0.30;99.90
3202;DHT22;34843;48.744;8.958;2024-01-15T14:31:38;0.20;99.90
3202;DHT22;34843;48.744;8.958;2024-01-15T14:34:04;0.10;99.90
3202;DHT22;34843;48.744;8.958;2024-01-15T14:36:30;0.10;99.90
3202;DHT22;34843;48.744;8.958;2024-01-15T14:38:55;0.10;99.90
3202;DHT22;34843;48.744;8.958;2024-01-15T14:41:21;0.00;99.90
3202;DHT22;34843;48.744;8.958;2024-01-15T14:43:46;0.00;99.90
3202;DHT22;34843;48.744;8.958;2024-01-15T14:46:12;-0.10;99.90
3202;DHT22;34843;48.744;8.958;2024-01-15T14:48:37;-0.10;99.90
3202;DHT22;34843;48.744;8.958;2024-01-15T14:51:03;-0.20;99.90
3202;DHT22;34843;48.744;8.958;2024-01-15T14:53:28;-0.20;99.90
3202;DHT22;34843;48.744;8.958;2024-01-15T14:55:54;-0.20;99.90
3202;DHT22;34843;48.744;8.958;2024-01-15T14:58:20;-0.20;99.90
3202;DHT22;34843;48.744;8.958;2024-01-15T15:00:45;-0.20;99.90
3202;DHT22;34843;48.744;8.958;2024-01-15T15:03:11;-0.20;99.90
3202;DHT22;34843;48.744;8.958;2024-01-15T15:05:39;-0.20;99.90
3202;DHT22;34843;48.744;8.958;2024-01-15T15:08:04;-0.20;99.90
3202;DHT22;34843;48.744;8.958;2024-01-15T15:10:34;-0.20;99.90
3202;DHT22;34843;48.744;8.958;2024-01-15T15:13:00;-0.20;99.90
3202;DHT22;34843;48.744;8.958;2024-01-15T15:15:26;-0.30;99.90
3202;DHT22;34843;48.744;8.958;2024-01-15T15:17:51;-0.40;99.90
3202;DHT22;34843;48.744;8.958;2024-01-15T15:20:17;-0.40;99.90
3202;DHT22;34843;48.744;8.958;2024-01-15T15:22:44;-0.50;99.90
3202;DHT22;34843;48.744;8.958;2024-01-15T15:25:09;-0.60;99.90
3202;DHT22;34843;48.744;8.958;2024-01-15T15:27:36;-0.60;99.90
3202;DHT22;34843;48.744;8.958;2024-01-15T15:30:02;-0.60;99.90
3202;DHT22;34843;48.744;8.958;2024-01-15T15:32:27;-0.60;99.90
3202;DHT22;34843;48.744;8.958;2024-01-15T15:34:53;-0.70;99.90
3202;DHT22;34843;48.744;8.958;2024-01-15T15:37:19;-0.70;99.90
3202;DHT22;34843;48.744;8.958;2024-01-15T15:39:44;-0.70;99.90
3202;DHT22;34843;48.744;8.958;2024-01-15T15:42:10;-0.70;99.90
3202;DHT22;34843;48.744;8.958;2024-01-15T15:44:35;-0.80;99.90
3202;DHT22;34843;48.744;8.958;2024-01-15T15:47:01;-0.80;99.90
3202;DHT22;34843;48.744;8.958;2024-01-15T15:49:26;-0.80;99.90
3202;DHT22;34843;48.744;8.958;2024-01-15T15:51:52;-0.80;99.90
3202;DHT22;34843;48.744;8.958;2024-01-15T15:54:17;-0.80;99.90
3202;DHT22;34843;48.744;8.958;2024-01-15T15:56:43;-0.90;99.90
3202;DHT22;34843;48.744;8.958;2024-01-15T15:59:12;-0.90;99.90